This is the latest recevied weather packets stored in our database for station/object PA3DZX-13. If no packets are shown the sender has not sent any weather packets the latest 10 day(s).
| Time | Temp. | Humidity | Pressure | Rain* | Wind** | Luminosity | Snow |
|---|---|---|---|---|---|---|---|
| 1788291484 | 11.67° C | 89% | 1020.3 hPa | 0 mm | - | - | - |
| 1788290581 | 13.89° C | 85% | 1020.4 hPa | 0 mm | - | - | - |
| 1788289680 | 13.89° C | 84% | 1020.4 hPa | 0 mm | - | - | - |
| 1788288779 | 13.89° C | 81% | 1020.3 hPa | 0 mm | - | - | - |
| 1788287879 | 15.56° C | 71% | 1020.2 hPa | 0 mm | - | - | - |
| 1788286978 | 17.78° C | 66% | 1020.1 hPa | 0 mm | - | - | - |
| 1788286078 | 17.78° C | 64% | 1020.1 hPa | 0 mm | - | - | - |
| 1788285178 | 18.89° C | 61% | 1020 hPa | 0 mm | - | - | - |
| 1788284278 | 18.89° C | 60% | 1019.9 hPa | 0 mm | - | - | - |
| 1788283377 | 18.89° C | 57% | 1019.8 hPa | 0 mm | - | - | - |
| 1788282477 | 18.89° C | 58% | 1019.8 hPa | 0 mm | - | - | - |
| 1788281576 | 18.89° C | 56% | 1019.7 hPa | 0 mm | - | - | - |
| 1788280676 | 20° C | 51% | 1019.6 hPa | 0 mm | - | - | - |
| 1788279775 | 20° C | 53% | 1019.5 hPa | 0 mm | - | - | - |
| 1788278875 | 20° C | 52% | 1019.5 hPa | 0 mm | - | - | - |
| 1788277973 | 20° C | 49% | 1019.5 hPa | 0 mm | - | - | - |
| 1788277073 | 20.56° C | 50% | 1019.4 hPa | 0 mm | - | - | - |
| 1788276172 | 20.56° C | 47% | 1019.3 hPa | 0 mm | - | - | - |
| 1788275272 | 20.56° C | 48% | 1019.3 hPa | 0 mm | - | - | - |
| 1788274371 | 20.56° C | 47% | 1019.3 hPa | 0 mm | - | - | - |
| 1788273471 | 20° C | 50% | 1019.3 hPa | 0 mm | - | - | - |
| 1788272570 | 20.56° C | 49% | 1019.3 hPa | 0 mm | - | - | - |
| 1788271669 | 20.56° C | 50% | 1019.2 hPa | 0 mm | - | - | - |
| 1788270768 | 21.67° C | 50% | 1019.2 hPa | 0 mm | - | - | - |
| 1788269868 | 20.56° C | 49% | 1019.1 hPa | 0 mm | - | - | - |
* Rain latest hour (hover to see other rain measurements)
** Current wind speed in m/s (hover to see current wind gust speed)